Terminal Aerodrome Forecast
Issued by NWS Cleveland, OH

Home | Current Version | Previous Version | Graphics & Text | Print | Product List | Glossary Off
Versions: 1 2 3 4 5 6 7 8 9 10 11 12 13 14 15 16 17 18 19

000
FTUS41 KCLE 310200 AAB
TAFTOL
TAF AMD
KTOL 310235Z 3103/3124 VRB03KT P6SM SCT050
     FM310700 26004KT P6SM BKN070
     FM311600 24008KT P6SM SCT045=

USA.gov is the U.S. government's official web portal to all federal, state and local government web resources and services.